sensor_id;sensor_type;location;lat;lon;timestamp;pressure;altitude;pressure_sealevel;temperature;humidity
59367;BME280;45163;47.690;11.770;2022-11-15T00:00:55;93300.56;;;1.20;100.00
59367;BME280;45163;47.690;11.770;2022-11-15T00:03:24;93286.72;;;1.14;100.00
59367;BME280;45163;47.690;11.770;2022-11-15T00:05:53;93292.03;;;1.07;100.00
59367;BME280;45163;47.690;11.770;2022-11-15T00:08:19;93289.69;;;0.98;100.00
59367;BME280;45163;47.690;11.770;2022-11-15T00:10:55;93291.28;;;1.07;100.00
59367;BME280;45163;47.690;11.770;2022-11-15T00:13:21;93290.59;;;1.20;100.00
59367;BME280;45163;47.690;11.770;2022-11-15T00:15:47;93279.91;;;1.31;100.00
59367;BME280;45163;47.690;11.770;2022-11-15T00:18:14;93280.72;;;1.42;100.00
59367;BME280;45163;47.690;11.770;2022-11-15T00:20:41;93276.50;;;1.45;100.00
59367;BME280;45163;47.690;11.770;2022-11-15T00:23:07;93276.06;;;1.32;100.00
59367;BME280;45163;47.690;11.770;2022-11-15T00:25:33;93272.22;;;1.33;100.00
59367;BME280;45163;47.690;11.770;2022-11-15T00:28:00;93266.38;;;1.17;100.00
59367;BME280;45163;47.690;11.770;2022-11-15T00:30:27;93274.88;;;1.22;100.00
59367;BME280;45163;47.690;11.770;2022-11-15T00:32:53;93273.75;;;1.31;100.00
59367;BME280;45163;47.690;11.770;2022-11-15T00:35:20;93266.88;;;1.40;100.00
59367;BME280;45163;47.690;11.770;2022-11-15T00:37:46;93262.38;;;1.69;100.00
59367;BME280;45163;47.690;11.770;2022-11-15T00:40:14;93253.19;;;1.78;100.00
59367;BME280;45163;47.690;11.770;2022-11-15T00:42:40;93259.69;;;1.66;100.00
59367;BME280;45163;47.690;11.770;2022-11-15T00:45:07;93258.44;;;1.42;100.00
59367;BME280;45163;47.690;11.770;2022-11-15T00:47:33;93254.13;;;1.23;100.00
59367;BME280;45163;47.690;11.770;2022-11-15T00:49:59;93262.13;;;1.16;100.00
59367;BME280;45163;47.690;11.770;2022-11-15T00:52:25;93264.03;;;1.12;100.00
59367;BME280;45163;47.690;11.770;2022-11-15T00:54:51;93265.50;;;0.98;100.00
59367;BME280;45163;47.690;11.770;2022-11-15T00:57:17;93267.38;;;0.91;100.00
59367;BME280;45163;47.690;11.770;2022-11-15T00:59:43;93264.66;;;0.87;100.00
59367;BME280;45163;47.690;11.770;2022-11-15T01:02:09;93263.78;;;0.72;100.00
59367;BME280;45163;47.690;11.770;2022-11-15T01:04:35;93261.63;;;0.92;100.00
59367;BME280;45163;47.690;11.770;2022-11-15T01:07:01;93259.81;;;1.11;100.00
59367;BME280;45163;47.690;11.770;2022-11-15T01:09:26;93259.53;;;1.27;100.00
59367;BME280;45163;47.690;11.770;2022-11-15T01:11:53;93263.75;;;1.28;100.00
59367;BME280;45163;47.690;11.770;2022-11-15T01:14:19;93258.34;;;1.24;100.00
59367;BME280;45163;47.690;11.770;2022-11-15T01:16:44;93254.09;;;1.19;100.00
59367;BME280;45163;47.690;11.770;2022-11-15T01:19:10;93255.22;;;1.15;100.00
59367;BME280;45163;47.690;11.770;2022-11-15T01:21:37;93260.50;;;0.97;100.00
59367;BME280;45163;47.690;11.770;2022-11-15T01:24:03;93247.34;;;0.81;100.00
59367;BME280;45163;47.690;11.770;2022-11-15T01:26:29;93245.69;;;0.66;100.00
59367;BME280;45163;47.690;11.770;2022-11-15T01:28:55;93244.88;;;0.55;100.00
59367;BME280;45163;47.690;11.770;2022-11-15T01:31:21;93251.69;;;0.45;100.00
59367;BME280;45163;47.690;11.770;2022-11-15T01:33:48;93248.59;;;0.39;100.00
59367;BME280;45163;47.690;11.770;2022-11-15T01:36:20;93245.47;;;0.34;100.00
59367;BME280;45163;47.690;11.770;2022-11-15T01:38:57;93232.88;;;0.45;100.00
59367;BME280;45163;47.690;11.770;2022-11-15T01:41:26;93229.09;;;0.49;100.00
59367;BME280;45163;47.690;11.770;2022-11-15T01:43:54;93231.84;;;0.60;100.00
59367;BME280;45163;47.690;11.770;2022-11-15T01:46:30;93225.41;;;0.68;100.00
59367;BME280;45163;47.690;11.770;2022-11-15T01:49:03;93220.72;;;0.62;100.00
59367;BME280;45163;47.690;11.770;2022-11-15T01:51:32;93226.47;;;0.57;100.00
59367;BME280;45163;47.690;11.770;2022-11-15T01:54:04;93221.03;;;0.49;100.00
59367;BME280;45163;47.690;11.770;2022-11-15T01:56:35;93217.94;;;0.44;100.00
59367;BME280;45163;47.690;11.770;2022-11-15T01:59:04;93219.41;;;0.34;100.00
59367;BME280;45163;47.690;11.770;2022-11-15T02:01:33;93197.91;;;0.34;100.00
59367;BME280;45163;47.690;11.770;2022-11-15T02:04:03;93202.47;;;0.27;100.00
59367;BME280;45163;47.690;11.770;2022-11-15T02:06:32;93204.72;;;0.24;100.00
59367;BME280;45163;47.690;11.770;2022-11-15T02:08:58;93204.09;;;0.38;100.00
59367;BME280;45163;47.690;11.770;2022-11-15T02:11:25;93197.94;;;0.41;100.00
59367;BME280;45163;47.690;11.770;2022-11-15T02:13:51;93189.66;;;0.61;100.00
59367;BME280;45163;47.690;11.770;2022-11-15T02:30:11;93171.69;;;0.68;100.00
59367;BME280;45163;47.690;11.770;2022-11-15T02:33:01;93171.97;;;0.56;100.00
59367;BME280;45163;47.690;11.770;2022-11-15T02:35:37;93170.81;;;0.54;100.00
59367;BME280;45163;47.690;11.770;2022-11-15T02:41:01;93159.09;;;0.80;100.00
59367;BME280;45163;47.690;11.770;2022-11-15T02:43:54;93160.28;;;0.89;100.00
59367;BME280;45163;47.690;11.770;2022-11-15T02:46:41;93157.25;;;1.02;100.00
59367;BME280;45163;47.690;11.770;2022-11-15T02:49:31;93139.53;;;0.90;100.00
59367;BME280;45163;47.690;11.770;2022-11-15T02:51:57;93138.03;;;0.96;100.00
59367;BME280;45163;47.690;11.770;2022-11-15T02:54:30;93134.22;;;1.01;100.00
59367;BME280;45163;47.690;11.770;2022-11-15T02:57:16;93140.75;;;1.07;100.00
59367;BME280;45163;47.690;11.770;2022-11-15T03:10:35;93124.16;;;0.80;100.00
59367;BME280;45163;47.690;11.770;2022-11-15T03:13:11;93124.09;;;0.69;100.00
59367;BME280;45163;47.690;11.770;2022-11-15T03:15:44;93124.94;;;0.84;100.00
59367;BME280;45163;47.690;11.770;2022-11-15T03:18:21;93119.22;;;0.92;100.00
59367;BME280;45163;47.690;11.770;2022-11-15T03:20:48;93123.03;;;0.91;100.00
59367;BME280;45163;47.690;11.770;2022-11-15T03:23:17;93124.94;;;0.80;100.00
59367;BME280;45163;47.690;11.770;2022-11-15T03:25:48;93126.06;;;0.79;100.00
59367;BME280;45163;47.690;11.770;2022-11-15T03:28:22;93128.56;;;1.27;100.00
59367;BME280;45163;47.690;11.770;2022-11-15T03:30:50;93127.84;;;1.48;100.00
59367;BME280;45163;47.690;11.770;2022-11-15T03:33:17;93122.09;;;1.60;100.00
59367;BME280;45163;47.690;11.770;2022-11-15T03:35:44;93118.63;;;1.56;100.00
59367;BME280;45163;47.690;11.770;2022-11-15T03:38:25;93116.63;;;1.28;100.00
59367;BME280;45163;47.690;11.770;2022-11-15T03:40:59;93113.50;;;1.12;100.00
59367;BME280;45163;47.690;11.770;2022-11-15T03:46:23;93105.78;;;0.89;100.00
59367;BME280;45163;47.690;11.770;2022-11-15T03:48:53;93103.81;;;0.82;100.00
59367;BME280;45163;47.690;11.770;2022-11-15T03:51:21;93110.72;;;0.76;100.00
59367;BME280;45163;47.690;11.770;2022-11-15T03:53:48;93106.19;;;1.02;100.00
59367;BME280;45163;47.690;11.770;2022-11-15T03:56:14;93085.84;;;1.01;100.00
59367;BME280;45163;47.690;11.770;2022-11-15T03:58:40;93096.97;;;1.03;100.00
59367;BME280;45163;47.690;11.770;2022-11-15T04:01:06;93090.03;;;0.94;100.00
59367;BME280;45163;47.690;11.770;2022-11-15T04:03:32;93089.31;;;1.01;100.00
59367;BME280;45163;47.690;11.770;2022-11-15T04:05:58;93084.63;;;0.87;100.00
59367;BME280;45163;47.690;11.770;2022-11-15T04:08:24;93076.16;;;0.78;100.00
59367;BME280;45163;47.690;11.770;2022-11-15T04:10:50;93073.53;;;0.89;100.00
59367;BME280;45163;47.690;11.770;2022-11-15T04:13:16;93081.31;;;1.33;100.00
59367;BME280;45163;47.690;11.770;2022-11-15T04:15:41;93078.28;;;1.49;100.00
59367;BME280;45163;47.690;11.770;2022-11-15T04:18:07;93077.91;;;1.51;100.00
59367;BME280;45163;47.690;11.770;2022-11-15T04:20:33;93075.97;;;1.44;100.00
59367;BME280;45163;47.690;11.770;2022-11-15T04:23:20;93065.19;;;1.33;100.00
59367;BME280;45163;47.690;11.770;2022-11-15T04:26:16;93059.41;;;1.28;100.00
59367;BME280;45163;47.690;11.770;2022-11-15T04:28:44;93054.03;;;1.28;100.00
59367;BME280;45163;47.690;11.770;2022-11-15T04:31:29;93058.28;;;1.32;100.00
59367;BME280;45163;47.690;11.770;2022-11-15T04:33:55;93059.81;;;1.33;100.00
59367;BME280;45163;47.690;11.770;2022-11-15T04:36:21;93053.25;;;1.16;100.00
59367;BME280;45163;47.690;11.770;2022-11-15T04:39:06;93051.38;;;1.31;100.00
59367;BME280;45163;47.690;11.770;2022-11-15T04:41:32;93045.59;;;1.33;100.00
59367;BME280;45163;47.690;11.770;2022-11-15T04:43:58;93053.69;;;1.43;100.00
59367;BME280;45163;47.690;11.770;2022-11-15T04:46:25;93050.22;;;1.50;100.00
59367;BME280;45163;47.690;11.770;2022-11-15T04:48:52;93052.53;;;1.52;100.00
59367;BME280;45163;47.690;11.770;2022-11-15T04:51:19;93046.41;;;1.69;100.00
59367;BME280;45163;47.690;11.770;2022-11-15T04:53:45;93044.47;;;1.55;100.00
59367;BME280;45163;47.690;11.770;2022-11-15T04:56:11;93045.25;;;1.56;100.00
59367;BME280;45163;47.690;11.770;2022-11-15T04:58:37;93039.47;;;1.64;100.00
59367;BME280;45163;47.690;11.770;2022-11-15T05:01:21;93042.94;;;1.65;100.00
59367;BME280;45163;47.690;11.770;2022-11-15T05:03:47;93041.38;;;1.74;100.00
59367;BME280;45163;47.690;11.770;2022-11-15T05:06:32;93036.00;;;1.78;100.00
59367;BME280;45163;47.690;11.770;2022-11-15T05:08:58;93024.88;;;1.69;100.00
59367;BME280;45163;47.690;11.770;2022-11-15T05:11:24;93021.78;;;1.67;100.00
59367;BME280;45163;47.690;11.770;2022-11-15T05:13:50;93023.31;;;1.50;100.00
59367;BME280;45163;47.690;11.770;2022-11-15T05:16:16;93019.47;;;1.55;100.00
59367;BME280;45163;47.690;11.770;2022-11-15T05:18:42;93018.34;;;1.52;100.00
59367;BME280;45163;47.690;11.770;2022-11-15T05:21:10;93022.94;;;1.44;100.00
59367;BME280;45163;47.690;11.770;2022-11-15T05:23:37;93022.19;;;1.47;100.00
59367;BME280;45163;47.690;11.770;2022-11-15T05:26:04;93025.63;;;1.48;100.00
59367;BME280;45163;47.690;11.770;2022-11-15T05:28:31;93019.13;;;1.60;100.00
59367;BME280;45163;47.690;11.770;2022-11-15T05:31:06;93019.47;;;1.58;100.00
59367;BME280;45163;47.690;11.770;2022-11-15T05:33:33;93025.25;;;1.64;100.00
59367;BME280;45163;47.690;11.770;2022-11-15T05:36:05;93021.03;;;1.48;100.00
59367;BME280;45163;47.690;11.770;2022-11-15T05:38:32;93016.03;;;1.58;100.00
59367;BME280;45163;47.690;11.770;2022-11-15T05:41:02;93023.34;;;1.43;100.00
59367;BME280;45163;47.690;11.770;2022-11-15T05:43:31;93002.59;;;1.65;100.00
59367;BME280;45163;47.690;11.770;2022-11-15T05:45:59;93000.59;;;2.08;100.00
59367;BME280;45163;47.690;11.770;2022-11-15T05:48:26;92998.69;;;2.05;100.00
59367;BME280;45163;47.690;11.770;2022-11-15T05:50:52;92986.81;;;1.74;100.00
59367;BME280;45163;47.690;11.770;2022-11-15T05:53:19;92985.28;;;1.59;100.00
59367;BME280;45163;47.690;11.770;2022-11-15T05:55:49;92977.97;;;1.73;100.00
59367;BME280;45163;47.690;11.770;2022-11-15T05:58:15;92975.69;;;1.65;100.00
59367;BME280;45163;47.690;11.770;2022-11-15T06:00:41;92988.75;;;1.52;100.00
59367;BME280;45163;47.690;11.770;2022-11-15T06:03:10;92987.97;;;1.66;100.00
59367;BME280;45163;47.690;11.770;2022-11-15T06:05:36;92984.88;;;1.89;100.00
59367;BME280;45163;47.690;11.770;2022-11-15T06:08:02;93001.81;;;1.89;100.00
59367;BME280;45163;47.690;11.770;2022-11-15T06:10:28;92988.72;;;1.91;100.00
59367;BME280;45163;47.690;11.770;2022-11-15T06:13:01;92981.03;;;1.97;100.00
59367;BME280;45163;47.690;11.770;2022-11-15T06:15:28;92980.63;;;1.98;100.00
59367;BME280;45163;47.690;11.770;2022-11-15T06:17:57;92985.66;;;1.93;100.00
59367;BME280;45163;47.690;11.770;2022-11-15T06:20:25;92983.38;;;1.77;100.00
59367;BME280;45163;47.690;11.770;2022-11-15T06:22:56;92981.03;;;1.75;100.00
59367;BME280;45163;47.690;11.770;2022-11-15T06:25:22;92981.44;;;1.78;100.00
59367;BME280;45163;47.690;11.770;2022-11-15T06:27:56;92980.66;;;1.81;100.00
59367;BME280;45163;47.690;11.770;2022-11-15T06:30:24;92979.50;;;1.85;100.00
59367;BME280;45163;47.690;11.770;2022-11-15T06:32:50;92986.00;;;1.95;100.00
59367;BME280;45163;47.690;11.770;2022-11-15T06:35:16;92982.56;;;2.05;100.00
59367;BME280;45163;47.690;11.770;2022-11-15T06:37:42;92983.00;;;1.71;100.00
59367;BME280;45163;47.690;11.770;2022-11-15T06:40:09;92976.44;;;1.65;100.00
59367;BME280;45163;47.690;11.770;2022-11-15T06:42:35;92975.66;;;1.83;100.00
59367;BME280;45163;47.690;11.770;2022-11-15T06:45:02;92982.19;;;1.82;100.00
59367;BME280;45163;47.690;11.770;2022-11-15T06:47:28;92984.53;;;1.62;100.00
59367;BME280;45163;47.690;11.770;2022-11-15T06:49:53;92981.06;;;1.58;100.00
59367;BME280;45163;47.690;11.770;2022-11-15T06:52:19;92976.44;;;1.62;100.00
59367;BME280;45163;47.690;11.770;2022-11-15T06:54:47;92971.84;;;1.77;100.00
59367;BME280;45163;47.690;11.770;2022-11-15T06:57:13;92980.28;;;1.89;100.00
59367;BME280;45163;47.690;11.770;2022-11-15T06:59:39;92975.16;;;2.31;100.00
59367;BME280;45163;47.690;11.770;2022-11-15T07:02:05;92966.28;;;2.37;100.00
59367;BME280;45163;47.690;11.770;2022-11-15T07:04:31;92970.13;;;2.40;100.00
59367;BME280;45163;47.690;11.770;2022-11-15T07:06:57;92969.41;;;2.21;100.00
59367;BME280;45163;47.690;11.770;2022-11-15T07:09:23;92977.13;;;2.16;100.00
59367;BME280;45163;47.690;11.770;2022-11-15T07:11:52;92970.22;;;2.11;100.00
59367;BME280;45163;47.690;11.770;2022-11-15T07:14:18;92969.88;;;1.95;100.00
59367;BME280;45163;47.690;11.770;2022-11-15T07:16:44;92971.44;;;1.74;100.00
59367;BME280;45163;47.690;11.770;2022-11-15T07:19:10;92974.16;;;1.64;100.00
59367;BME280;45163;47.690;11.770;2022-11-15T07:21:39;92971.47;;;1.60;100.00
59367;BME280;45163;47.690;11.770;2022-11-15T07:24:05;92968.78;;;1.67;100.00
59367;BME280;45163;47.690;11.770;2022-11-15T07:26:31;92976.84;;;1.67;100.00
59367;BME280;45163;47.690;11.770;2022-11-15T07:28:57;92969.53;;;1.61;100.00
59367;BME280;45163;47.690;11.770;2022-11-15T07:31:23;92971.84;;;1.73;100.00
59367;BME280;45163;47.690;11.770;2022-11-15T07:33:49;92968.75;;;1.71;100.00
59367;BME280;45163;47.690;11.770;2022-11-15T07:36:15;92973.38;;;1.81;100.00
59367;BME280;45163;47.690;11.770;2022-11-15T07:38:41;92972.59;;;1.84;100.00
59367;BME280;45163;47.690;11.770;2022-11-15T07:41:07;92967.19;;;1.88;100.00
59367;BME280;45163;47.690;11.770;2022-11-15T07:43:33;92964.88;;;1.97;100.00
59367;BME280;45163;47.690;11.770;2022-11-15T07:46:05;92964.84;;;2.00;100.00
59367;BME280;45163;47.690;11.770;2022-11-15T07:48:33;92957.50;;;2.22;100.00
59367;BME280;45163;47.690;11.770;2022-11-15T07:50:59;92952.09;;;2.26;100.00
59367;BME280;45163;47.690;11.770;2022-11-15T07:53:25;92948.63;;;2.25;100.00
59367;BME280;45163;47.690;11.770;2022-11-15T07:55:50;92946.34;;;2.17;100.00
59367;BME280;45163;47.690;11.770;2022-11-15T07:58:19;92946.69;;;2.30;100.00
59367;BME280;45163;47.690;11.770;2022-11-15T08:00:45;92947.06;;;2.32;100.00
59367;BME280;45163;47.690;11.770;2022-11-15T08:03:13;92938.56;;;2.40;100.00
59367;BME280;45163;47.690;11.770;2022-11-15T08:05:41;92937.03;;;2.43;100.00
59367;BME280;45163;47.690;11.770;2022-11-15T08:08:09;92931.59;;;2.50;100.00
59367;BME280;45163;47.690;11.770;2022-11-15T08:10:36;92929.25;;;2.59;100.00
59367;BME280;45163;47.690;11.770;2022-11-15T08:13:07;92918.38;;;2.77;100.00
59367;BME280;45163;47.690;11.770;2022-11-15T08:15:34;92915.94;;;2.97;100.00
59367;BME280;45163;47.690;11.770;2022-11-15T08:18:04;92914.41;;;2.92;100.00
59367;BME280;45163;47.690;11.770;2022-11-15T08:20:31;92921.00;;;2.88;100.00
59367;BME280;45163;47.690;11.770;2022-11-15T08:22:58;92917.91;;;2.89;100.00
59367;BME280;45163;47.690;11.770;2022-11-15T08:25:26;92917.56;;;2.84;100.00
59367;BME280;45163;47.690;11.770;2022-11-15T08:27:57;92906.44;;;2.74;100.00
59367;BME280;45163;47.690;11.770;2022-11-15T08:30:23;92903.72;;;2.78;100.00
59367;BME280;45163;47.690;11.770;2022-11-15T08:32:51;92893.97;;;2.98;100.00
59367;BME280;45163;47.690;11.770;2022-11-15T08:35:18;92884.94;;;3.23;100.00
59367;BME280;45163;47.690;11.770;2022-11-15T08:37:45;92882.34;;;3.54;100.00
59367;BME280;45163;47.690;11.770;2022-11-15T08:40:11;92879.56;;;3.98;100.00
59367;BME280;45163;47.690;11.770;2022-11-15T08:42:37;92877.00;;;4.53;100.00
59367;BME280;45163;47.690;11.770;2022-11-15T08:45:04;92873.06;;;5.11;100.00
59367;BME280;45163;47.690;11.770;2022-11-15T08:47:30;92855.25;;;5.61;100.00
59367;BME280;45163;47.690;11.770;2022-11-15T08:49:56;92845.38;;;6.14;100.00
59367;BME280;45163;47.690;11.770;2022-11-15T08:52:22;92855.59;;;6.82;100.00
59367;BME280;45163;47.690;11.770;2022-11-15T08:54:48;92848.66;;;7.46;100.00
59367;BME280;45163;47.690;11.770;2022-11-15T08:57:14;92844.38;;;8.07;100.00
59367;BME280;45163;47.690;11.770;2022-11-15T08:59:40;92843.38;;;8.85;100.00
59367;BME280;45163;47.690;11.770;2022-11-15T09:02:06;92835.81;;;10.00;100.00
59367;BME280;45163;47.690;11.770;2022-11-15T09:04:32;92828.72;;;10.46;91.20
59367;BME280;45163;47.690;11.770;2022-11-15T09:06:58;92826.94;;;10.75;86.16
59367;BME280;45163;47.690;11.770;2022-11-15T09:09:24;92827.06;;;11.52;83.75
59367;BME280;45163;47.690;11.770;2022-11-15T09:11:50;92824.72;;;12.45;80.99
59367;BME280;45163;47.690;11.770;2022-11-15T09:14:16;92820.28;;;13.18;71.97
59367;BME280;45163;47.690;11.770;2022-11-15T09:16:42;92817.81;;;15.08;73.03
59367;BME280;45163;47.690;11.770;2022-11-15T09:19:08;92815.16;;;15.79;62.96
59367;BME280;45163;47.690;11.770;2022-11-15T09:21:34;92812.44;;;16.92;58.64
59367;BME280;45163;47.690;11.770;2022-11-15T09:24:00;92809.75;;;17.61;52.35
59367;BME280;45163;47.690;11.770;2022-11-15T09:26:26;92803.41;;;16.91;48.70
59367;BME280;45163;47.690;11.770;2022-11-15T09:28:52;92807.94;;;16.89;51.30
59367;BME280;45163;47.690;11.770;2022-11-15T09:31:19;92808.56;;;16.32;50.26
59367;BME280;45163;47.690;11.770;2022-11-15T09:33:45;92797.19;;;16.71;47.43
59367;BME280;45163;47.690;11.770;2022-11-15T09:36:12;92798.91;;;17.52;48.39
59367;BME280;45163;47.690;11.770;2022-11-15T09:38:38;92790.97;;;18.96;44.84
59367;BME280;45163;47.690;11.770;2022-11-15T09:46:37;92782.03;;;20.21;42.75
59367;BME280;45163;47.690;11.770;2022-11-15T09:51:43;92767.88;;;21.54;38.23
59367;BME280;45163;47.690;11.770;2022-11-15T09:54:25;92764.59;;;22.91;36.92
59367;BME280;45163;47.690;11.770;2022-11-15T09:56:52;92765.63;;;23.39;36.33
59367;BME280;45163;47.690;11.770;2022-11-15T10:05:16;92750.00;;;24.34;30.15
59367;BME280;45163;47.690;11.770;2022-11-15T10:12:51;92727.81;;;24.42;30.41
59367;BME280;45163;47.690;11.770;2022-11-15T10:15:19;92724.25;;;24.02;29.29
59367;BME280;45163;47.690;11.770;2022-11-15T10:20:25;92719.75;;;24.25;30.31
59367;BME280;45163;47.690;11.770;2022-11-15T10:23:05;92713.75;;;23.81;28.93
59367;BME280;45163;47.690;11.770;2022-11-15T10:25:33;92706.03;;;24.14;29.65
59367;BME280;45163;47.690;11.770;2022-11-15T10:28:18;92706.16;;;25.03;28.66
59367;BME280;45163;47.690;11.770;2022-11-15T10:30:49;92704.84;;;25.39;28.45
59367;BME280;45163;47.690;11.770;2022-11-15T10:41:17;92674.84;;;25.39;25.18
59367;BME280;45163;47.690;11.770;2022-11-15T10:43:44;92678.44;;;26.33;25.05
59367;BME280;45163;47.690;11.770;2022-11-15T10:46:23;92663.00;;;25.75;24.39
59367;BME280;45163;47.690;11.770;2022-11-15T10:48:50;92662.66;;;26.07;24.09
59367;BME280;45163;47.690;11.770;2022-11-15T10:51:26;92658.91;;;27.00;23.39
59367;BME280;45163;47.690;11.770;2022-11-15T10:53:57;92655.75;;;26.44;22.43
59367;BME280;45163;47.690;11.770;2022-11-15T10:56:26;92653.53;;;27.25;22.86
59367;BME280;45163;47.690;11.770;2022-11-15T10:58:55;92651.88;;;27.68;22.76
59367;BME280;45163;47.690;11.770;2022-11-15T11:01:28;92641.13;;;28.20;21.22
59367;BME280;45163;47.690;11.770;2022-11-15T11:04:04;92622.13;;;27.88;21.27
59367;BME280;45163;47.690;11.770;2022-11-15T11:06:49;92625.72;;;28.44;20.81
59367;BME280;45163;47.690;11.770;2022-11-15T11:09:32;92615.84;;;28.20;21.13
59367;BME280;45163;47.690;11.770;2022-11-15T11:11:59;92606.13;;;28.13;20.92
59367;BME280;45163;47.690;11.770;2022-11-15T11:14:28;92598.41;;;28.77;21.85
59367;BME280;45163;47.690;11.770;2022-11-15T11:17:09;92595.06;;;29.28;21.37
59367;BME280;45163;47.690;11.770;2022-11-15T11:35:36;92577.63;;;29.05;19.69
59367;BME280;45163;47.690;11.770;2022-11-15T11:38:09;92571.41;;;29.57;19.41
59367;BME280;45163;47.690;11.770;2022-11-15T11:49:28;92575.75;;;26.56;22.92
59367;BME280;45163;47.690;11.770;2022-11-15T11:52:02;92571.06;;;25.64;22.78
59367;BME280;45163;47.690;11.770;2022-11-15T11:54:38;92570.28;;;25.27;23.17
59367;BME280;45163;47.690;11.770;2022-11-15T11:57:13;92570.97;;;24.57;23.67
59367;BME280;45163;47.690;11.770;2022-11-15T11:59:58;92569.94;;;25.59;22.32
59367;BME280;45163;47.690;11.770;2022-11-15T12:02:35;92563.53;;;25.01;23.14
59367;BME280;45163;47.690;11.770;2022-11-15T12:07:42;92561.50;;;25.02;22.85
59367;BME280;45163;47.690;11.770;2022-11-15T12:13:06;92558.78;;;24.89;23.89
59367;BME280;45163;47.690;11.770;2022-11-15T12:15:57;92555.69;;;25.49;23.65
59367;BME280;45163;47.690;11.770;2022-11-15T12:18:25;92545.03;;;26.13;23.13
59367;BME280;45163;47.690;11.770;2022-11-15T12:20:56;92542.94;;;26.05;21.43
59367;BME280;45163;47.690;11.770;2022-11-15T12:23:30;92535.78;;;24.96;23.67
59367;BME280;45163;47.690;11.770;2022-11-15T12:26:10;92533.34;;;24.71;24.86
59367;BME280;45163;47.690;11.770;2022-11-15T12:28:46;92529.28;;;25.94;23.39
59367;BME280;45163;47.690;11.770;2022-11-15T12:33:46;92535.91;;;24.90;25.19
59367;BME280;45163;47.690;11.770;2022-11-15T12:39:05;92526.88;;;25.26;25.55
59367;BME280;45163;47.690;11.770;2022-11-15T12:41:34;92528.63;;;24.66;26.00
59367;BME280;45163;47.690;11.770;2022-11-15T12:44:01;92527.88;;;24.45;26.02
59367;BME280;45163;47.690;11.770;2022-11-15T12:49:02;92526.75;;;25.68;26.49
59367;BME280;45163;47.690;11.770;2022-11-15T13:02:29;92514.53;;;22.50;31.27
59367;BME280;45163;47.690;11.770;2022-11-15T13:17:46;92501.59;;;20.28;34.57
59367;BME280;45163;47.690;11.770;2022-11-15T13:27:54;92507.19;;;18.64;38.25
59367;BME280;45163;47.690;11.770;2022-11-15T13:30:28;92517.28;;;18.23;39.21
59367;BME280;45163;47.690;11.770;2022-11-15T13:32:55;92516.69;;;17.57;40.21
59367;BME280;45163;47.690;11.770;2022-11-15T13:35:26;92501.94;;;18.05;39.51
59367;BME280;45163;47.690;11.770;2022-11-15T13:37:55;92508.91;;;17.44;40.96
59367;BME280;45163;47.690;11.770;2022-11-15T13:40:29;92516.31;;;17.15;41.72
59367;BME280;45163;47.690;11.770;2022-11-15T13:42:59;92511.19;;;16.43;44.18
59367;BME280;45163;47.690;11.770;2022-11-15T13:45:42;92516.84;;;15.97;45.88
59367;BME280;45163;47.690;11.770;2022-11-15T13:48:09;92503.41;;;15.73;46.03
59367;BME280;45163;47.690;11.770;2022-11-15T13:50:37;92514.34;;;15.67;48.17
59367;BME280;45163;47.690;11.770;2022-11-15T13:53:05;92513.91;;;15.02;50.05
59367;BME280;45163;47.690;11.770;2022-11-15T13:55:32;92510.16;;;14.43;52.28
59367;BME280;45163;47.690;11.770;2022-11-15T13:58:01;92507.50;;;14.14;54.78
59367;BME280;45163;47.690;11.770;2022-11-15T14:00:38;92508.03;;;13.68;57.68
59367;BME280;45163;47.690;11.770;2022-11-15T14:03:12;92507.56;;;13.40;60.89
59367;BME280;45163;47.690;11.770;2022-11-15T14:05:41;92509.00;;;13.11;64.48
59367;BME280;45163;47.690;11.770;2022-11-15T14:08:22;92506.69;;;12.80;66.33
59367;BME280;45163;47.690;11.770;2022-11-15T14:11:06;92513.84;;;12.54;70.49
59367;BME280;45163;47.690;11.770;2022-11-15T14:13:35;92511.00;;;12.48;72.18
59367;BME280;45163;47.690;11.770;2022-11-15T14:16:19;92505.00;;;12.35;74.34
59367;BME280;45163;47.690;11.770;2022-11-15T14:18:48;92510.66;;;12.31;76.38
59367;BME280;45163;47.690;11.770;2022-11-15T14:21:15;92505.34;;;12.28;75.18
59367;BME280;45163;47.690;11.770;2022-11-15T14:23:41;92512.03;;;12.27;75.83
59367;BME280;45163;47.690;11.770;2022-11-15T14:26:26;92511.19;;;12.11;76.62
59367;BME280;45163;47.690;11.770;2022-11-15T14:28:52;92512.06;;;11.93;76.20
59367;BME280;45163;47.690;11.770;2022-11-15T14:31:19;92511.94;;;11.88;76.30
59367;BME280;45163;47.690;11.770;2022-11-15T14:33:46;92515.28;;;11.83;76.83
59367;BME280;45163;47.690;11.770;2022-11-15T14:36:15;92521.19;;;11.81;76.49
59367;BME280;45163;47.690;11.770;2022-11-15T14:38:42;92521.50;;;11.74;79.42
59367;BME280;45163;47.690;11.770;2022-11-15T14:41:23;92525.63;;;11.69;82.29
59367;BME280;45163;47.690;11.770;2022-11-15T14:43:50;92523.50;;;11.64;83.22
59367;BME280;45163;47.690;11.770;2022-11-15T14:46:16;92532.50;;;11.56;85.52
59367;BME280;45163;47.690;11.770;2022-11-15T14:48:43;92526.00;;;11.44;87.08
59367;BME280;45163;47.690;11.770;2022-11-15T14:51:12;92526.47;;;11.42;86.98
59367;BME280;45163;47.690;11.770;2022-11-15T14:53:39;92534.22;;;11.35;85.69
59367;BME280;45163;47.690;11.770;2022-11-15T14:56:05;92531.66;;;11.22;87.42
59367;BME280;45163;47.690;11.770;2022-11-15T14:58:31;92533.94;;;11.14;90.34
59367;BME280;45163;47.690;11.770;2022-11-15T15:00:57;92538.34;;;11.03;90.82
59367;BME280;45163;47.690;11.770;2022-11-15T15:03:23;92537.44;;;10.96;91.19
59367;BME280;45163;47.690;11.770;2022-11-15T15:05:49;92532.28;;;10.89;92.26
59367;BME280;45163;47.690;11.770;2022-11-15T15:08:15;92535.00;;;10.71;94.47
59367;BME280;45163;47.690;11.770;2022-11-15T15:10:43;92538.63;;;10.50;95.34